Lara Venture — VRIJ7 — position and weather

sailwx.info

Track history (hours):
 
Tides and Currents Weather Stations Pressure Air Temp Water Temp Dewpoint Dewpoint Depression Visibility Wind Speed Wind Dir Waves Ship Positions

Lara Venture

Last reported at 2018-Jun-12 07:53 UTC. Time now 2018-Jun-18 17:38 UTC.
Position N 26°02' W 079°29'.

Length 235 m; draft 14 m.

Type: Cargo ship. MMSI: 477434300.

Date/timePositionNaut miles runAvg speedWind from/ knotsBaromVisibWave heightAir tempDewpointWater temp
2018-Jun-12 07:53N 26°02' W 079°29'614.3
2018-Jun-12 07:29N 25°57' W 079°30'714.5
2018-Jun-12 07:00N 25°50' W 079°31'714.6
2018-Jun-12 06:30N 25°43' W 079°32'714.7
2018-Jun-12 06:00N 25°35' W 079°34'714.5
2018-Jun-12 05:30N 25°28' W 079°35'714.4
2018-Jun-12 05:01N 25°21' W 079°37'  
2018-Jun-09 07:38N 29°56' W 090°22'111.7
2018-Jun-09 07:30N 29°57' W 090°23'16 8.3
2018-Jun-09 05:32N 30°03' W 090°41'111.0
2018-Jun-09 05:24N 30°02' W 090°42'5 0.1
2018-Jun-07 11:28N 30°01' W 090°47'0 0.1
2018-Jun-07 11:00N 30°01' W 090°47'0 0.0
2018-Jun-07 10:27N 30°01' W 090°47'0 0.0
2018-Jun-07 10:00N 30°01' W 090°47'0 0.0
2018-Jun-07 09:30N 30°01' W 090°47'0 0.0
2018-Jun-07 09:00N 30°01' W 090°47'0 0.0
2018-Jun-07 08:30N 30°01' W 090°47'0 0.0
2018-Jun-07 07:59N 30°01' W 090°47'0 0.0
2018-Jun-07 07:28N 30°01' W 090°47'4 3.2
2018-Jun-07 06:20N 30°01' W 090°43'1 0.0
2018-Jun-06 00:43N 30°02' W 090°42'0 0.1
2018-Jun-06 00:25N 30°02' W 090°42'0 0.0
2018-Jun-05 23:55N 30°02' W 090°42'0 0.0
2018-Jun-05 23:25N 30°02' W 090°42'0 0.0
2018-Jun-05 22:55N 30°02' W 090°42'  
2018-Jun-03 08:59N 30°02' W 090°42'14 7.3
2018-Jun-03 07:05N 29°60' W 090°26'4 9.4
2018-Jun-03 06:38N 29°57' W 090°23'210.0
2018-Jun-03 06:27N 29°56' W 090°21'4 8.7
2018-Jun-03 05:59N 29°58' W 090°17'  
Track history (hours):
 
Tides and Currents Weather Stations Pressure Air Temp Water Temp Dewpoint Dewpoint Depression Visibility Wind Speed Wind Dir Waves Ship Positions

Lara Venture

Last reported at 2018-Jun-12 07:53 UTC. Time now 2018-Jun-18 17:38 UTC.
Position N 26°02' W 079°29'.

Length 235 m; draft 14 m.

Type: Cargo ship. MMSI: 477434300.

Date/timePositionNaut miles runAvg speedWind from/ knotsBaromVisibWave heightAir tempDewpointWater temp
2018-Jun-12 07:53N 26°02' W 079°29'614.3
2018-Jun-12 07:29N 25°57' W 079°30'714.5
2018-Jun-12 07:00N 25°50' W 079°31'714.6
2018-Jun-12 06:30N 25°43' W 079°32'714.7
2018-Jun-12 06:00N 25°35' W 079°34'714.5
2018-Jun-12 05:30N 25°28' W 079°35'714.4
2018-Jun-12 05:01N 25°21' W 079°37'  
2018-Jun-09 07:38N 29°56' W 090°22'111.7
2018-Jun-09 07:30N 29°57' W 090°23'16 8.3
2018-Jun-09 05:32N 30°03' W 090°41'111.0
2018-Jun-09 05:24N 30°02' W 090°42'5 0.1
2018-Jun-07 11:28N 30°01' W 090°47'0 0.1
2018-Jun-07 11:00N 30°01' W 090°47'0 0.0
2018-Jun-07 10:27N 30°01' W 090°47'0 0.0
2018-Jun-07 10:00N 30°01' W 090°47'0 0.0
2018-Jun-07 09:30N 30°01' W 090°47'0 0.0
2018-Jun-07 09:00N 30°01' W 090°47'0 0.0
2018-Jun-07 08:30N 30°01' W 090°47'0 0.0
2018-Jun-07 07:59N 30°01' W 090°47'0 0.0
2018-Jun-07 07:28N 30°01' W 090°47'4 3.2
2018-Jun-07 06:20N 30°01' W 090°43'1 0.0
2018-Jun-06 00:43N 30°02' W 090°42'0 0.1
2018-Jun-06 00:25N 30°02' W 090°42'0 0.0
2018-Jun-05 23:55N 30°02' W 090°42'0 0.0
2018-Jun-05 23:25N 30°02' W 090°42'0 0.0
2018-Jun-05 22:55N 30°02' W 090°42'  
2018-Jun-03 08:59N 30°02' W 090°42'14 7.3
2018-Jun-03 07:05N 29°60' W 090°26'4 9.4
2018-Jun-03 06:38N 29°57' W 090°23'210.0
2018-Jun-03 06:27N 29°56' W 090°21'4 8.7
2018-Jun-03 05:59N 29°58' W 090°17'  

Dump ship's entire track history